createdAt,value
2019-05-17T00:00:57.153Z,78.89
2019-05-17T00:03:27.021Z,79.32
2019-05-17T00:05:58.135Z,80.07
2019-05-17T00:08:34.404Z,79.56
2019-05-17T00:11:01.076Z,79.41
2019-05-17T00:13:31.846Z,79.45
2019-05-17T00:16:02.791Z,79.69
2019-05-17T00:18:33.644Z,80.03
2019-05-17T00:21:04.502Z,80.53
2019-05-17T00:23:37.452Z,80.60
2019-05-17T00:26:07.549Z,80.87
2019-05-17T00:28:38.613Z,80.90
2019-05-17T00:31:09.588Z,80.76
2019-05-17T00:33:40.548Z,80.79
2019-05-17T00:36:11.505Z,80.61
2019-05-17T00:38:48.310Z,80.61
2019-05-17T00:41:17.478Z,81.03
2019-05-17T00:43:47.345Z,81.57
2019-05-17T00:46:18.406Z,82.09
2019-05-17T00:48:49.365Z,82.22
2019-05-17T00:51:20.219Z,81.76
2019-05-17T00:53:51.280Z,81.47
2019-05-17T00:56:22.241Z,81.15
2019-05-17T00:58:53.299Z,81.33
2019-05-17T01:01:26.902Z,81.55
2019-05-17T01:03:57.230Z,82.04
2019-05-17T01:06:28.323Z,82.27
2019-05-17T01:09:01.893Z,82.32
2019-05-17T01:11:33.104Z,82.52
2019-05-17T01:14:06.823Z,82.47
2019-05-17T01:16:37.357Z,82.74
2019-05-17T01:19:08.435Z,83.23
2019-05-17T01:21:39.392Z,83.26
2019-05-17T01:24:10.230Z,83.39
2019-05-17T01:26:41.190Z,83.38
2019-05-17T01:29:12.146Z,83.45
2019-05-17T01:31:43.207Z,83.30
2019-05-17T01:34:16.472Z,83.40
2019-05-17T01:36:46.630Z,83.41
2019-05-17T01:39:21.335Z,83.17
2019-05-17T01:41:50.314Z,83.08
2019-05-17T01:44:21.493Z,83.21
2019-05-17T01:46:52.452Z,83.26
2019-05-17T01:49:23.514Z,83.26
2019-05-17T01:51:56.662Z,83.28
2019-05-17T01:54:27.005Z,83.26
2019-05-17T01:56:57.921Z,83.21
2019-05-17T01:59:28.760Z,83.42
2019-05-17T02:02:01.372Z,83.63
2019-05-17T02:04:32.333Z,83.18
2019-05-17T02:07:03.273Z,82.78
2019-05-17T02:09:38.603Z,82.87
2019-05-17T02:12:07.457Z,82.12
2019-05-17T02:14:38.499Z,82.16
2019-05-17T02:17:09.459Z,81.92
2019-05-17T02:19:40.438Z,81.81
2019-05-17T02:22:11.290Z,81.16
2019-05-17T02:24:42.358Z,81.15
2019-05-17T02:27:13.495Z,80.97
2019-05-17T02:29:44.557Z,80.79
2019-05-17T02:32:15.740Z,81.14
2019-05-17T02:34:46.799Z,81.45
2019-05-17T02:37:17.636Z,80.88
2019-05-17T02:39:58.296Z,79.33
2019-05-17T02:42:22.436Z,78.24
2019-05-17T02:44:53.294Z,77.75
2019-05-17T02:47:24.130Z,76.83
2019-05-17T02:49:55.189Z,75.61
2019-05-17T02:52:26.169Z,75.94
2019-05-17T02:54:57.230Z,76.20
2019-05-17T02:57:28.200Z,76.74
2019-05-17T02:59:59.231Z,77.16
2019-05-17T03:02:33.835Z,76.75
2019-05-17T03:05:04.102Z,76.25
2019-05-17T03:07:35.088Z,75.36
2019-05-17T03:10:18.113Z,72.79
2019-05-17T03:12:39.562Z,71.17
2019-05-17T03:15:12.844Z,67.00
2019-05-17T03:17:43.975Z,66.08
2019-05-17T03:20:15.393Z,67.42
2019-05-17T03:22:45.934Z,66.79
2019-05-17T03:25:17.014Z,67.00
2019-05-17T03:27:47.876Z,65.49
2019-05-17T03:30:25.343Z,64.92
2019-05-17T03:32:56.239Z,64.98
2019-05-17T03:35:26.901Z,63.86
2019-05-17T03:37:57.410Z,65.01
2019-05-17T03:40:56.542Z,65.46
2019-05-17T03:43:02.862Z,66.95
2019-05-17T03:45:34.145Z,68.16
2019-05-17T03:48:05.363Z,67.35
2019-05-17T03:50:36.198Z,68.17
2019-05-17T03:53:06.859Z,68.05
2019-05-17T03:55:37.923Z,66.92
2019-05-17T03:58:08.880Z,67.62
2019-05-17T04:00:42.583Z,67.41
2019-05-17T04:03:13.598Z,66.53
2019-05-17T04:05:44.617Z,67.77
2019-05-17T04:08:15.482Z,68.20
2019-05-17T04:10:46.533Z,68.06
2019-05-17T04:13:17.493Z,67.48
2019-05-17T04:15:48.554Z,66.86
2019-05-17T04:18:19.391Z,66.80
2019-05-17T04:20:52.847Z,67.97
2019-05-17T04:23:23.431Z,67.09
2019-05-17T04:25:54.318Z,67.66
2019-05-17T04:28:25.187Z,66.54
2019-05-17T04:30:56.052Z,66.62
2019-05-17T04:33:26.984Z,66.95
2019-05-17T04:35:57.960Z,66.80
2019-05-17T04:38:28.695Z,65.68
2019-05-17T04:41:02.847Z,64.43
2019-05-17T04:43:33.321Z,64.50
2019-05-17T04:46:04.334Z,64.00
2019-05-17T04:48:35.419Z,62.56
2019-05-17T04:51:06.370Z,63.31
2019-05-17T04:53:37.116Z,62.36
2019-05-17T04:56:08.185Z,62.50
2019-05-17T04:58:39.147Z,62.64
2019-05-17T05:01:12.972Z,62.12
2019-05-17T05:03:42.989Z,63.28
2019-05-17T05:06:14.066Z,61.91
2019-05-17T05:08:45.489Z,61.74
2019-05-17T05:11:16.391Z,61.85
2019-05-17T05:13:47.346Z,61.54
2019-05-17T05:16:18.391Z,60.51
2019-05-17T05:18:51.911Z,60.83
2019-05-17T05:21:22.995Z,60.84
2019-05-17T05:23:54.044Z,60.57
2019-05-17T05:26:24.983Z,59.82
2019-05-17T05:28:55.876Z,58.83
2019-05-17T05:31:26.928Z,58.55
2019-05-17T05:33:57.979Z,58.88
2019-05-17T05:36:32.797Z,59.69
2019-05-17T05:39:05.113Z,60.21
2019-05-17T05:41:36.173Z,59.95
2019-05-17T05:44:07.031Z,58.07
2019-05-17T05:46:38.065Z,57.79
2019-05-17T05:49:09.216Z,59.17
2019-05-17T05:51:42.289Z,58.55
2019-05-17T05:54:12.567Z,57.94
2019-05-17T05:56:43.563Z,58.45
2019-05-17T05:59:14.620Z,57.73
2019-05-17T06:01:45.585Z,58.01
2019-05-17T06:04:16.717Z,58.25
2019-05-17T06:06:47.393Z,58.71
2019-05-17T06:09:18.364Z,58.03
2019-05-17T06:11:51.819Z,56.01
2019-05-17T06:14:22.706Z,56.09
2019-05-17T06:16:53.973Z,57.53
2019-05-17T06:19:25.054Z,58.11
2019-05-17T06:21:56.120Z,57.43
2019-05-17T06:24:27.070Z,58.66
2019-05-17T06:26:57.701Z,57.10
2019-05-17T06:29:28.558Z,56.53
2019-05-17T06:31:59.431Z,57.28
2019-05-17T06:34:32.704Z,56.63
2019-05-17T06:37:02.869Z,56.63
2019-05-17T06:39:33.826Z,56.72
2019-05-17T06:42:04.809Z,56.04
2019-05-17T06:44:35.639Z,53.99
2019-05-17T06:47:06.700Z,53.99
2019-05-17T06:49:37.553Z,55.00
2019-05-17T06:52:08.428Z,55.00
2019-05-17T06:54:41.581Z,55.48
2019-05-17T06:57:12.894Z,54.71
2019-05-17T06:59:43.848Z,54.71
2019-05-17T07:02:14.921Z,53.89
2019-05-17T07:04:45.758Z,52.86
2019-05-17T07:07:24.085Z,53.83
2019-05-17T07:09:56.413Z,53.13
2019-05-17T07:12:30.474Z,53.85
2019-05-17T07:15:02.910Z,55.19
2019-05-17T07:17:34.073Z,54.46
2019-05-17T07:20:05.308Z,55.61
2019-05-17T07:22:35.985Z,56.23
2019-05-17T07:25:10.759Z,55.36
2019-05-17T07:27:45.440Z,55.50
2019-05-17T07:30:13.979Z,55.50
2019-05-17T07:32:44.524Z,54.85
2019-05-17T07:35:15.260Z,54.49
2019-05-17T07:37:46.345Z,53.89
2019-05-17T07:40:19.690Z,54.53
2019-05-17T07:42:50.213Z,54.17
2019-05-17T07:45:21.156Z,52.91
2019-05-17T07:47:52.218Z,53.45
2019-05-17T07:50:24.814Z,50.59
2019-05-17T07:52:55.652Z,51.80
2019-05-17T07:55:26.612Z,51.39
2019-05-17T07:58:10.039Z,52.73
2019-05-17T08:00:40.824Z,53.38
2019-05-17T08:03:13.314Z,53.85
2019-05-17T08:05:44.369Z,52.73
2019-05-17T08:08:15.023Z,52.59
2019-05-17T08:10:45.981Z,51.40
2019-05-17T08:13:27.269Z,52.39
2019-05-17T08:15:50.156Z,51.96
2019-05-17T08:18:21.311Z,52.09
2019-05-17T08:20:52.170Z,52.31
2019-05-17T08:23:23.106Z,52.09
2019-05-17T08:26:07.475Z,53.17
2019-05-17T08:28:50.582Z,52.41
2019-05-17T08:31:21.672Z,50.39
2019-05-17T08:33:52.630Z,50.72
2019-05-17T08:36:23.492Z,50.62
2019-05-17T08:38:54.547Z,49.83
2019-05-17T08:41:25.405Z,50.52
2019-05-17T08:43:56.554Z,50.04
2019-05-17T08:46:35.338Z,49.90
2019-05-17T08:49:09.601Z,50.43
2019-05-17T08:51:39.910Z,50.94
2019-05-17T08:54:11.735Z,51.10
2019-05-17T08:56:55.826Z,50.51
2019-05-17T08:59:29.695Z,50.79
2019-05-17T09:02:00.569Z,50.42
2019-05-17T09:04:31.422Z,50.10
2019-05-17T09:07:03.221Z,48.06
2019-05-17T09:09:34.059Z,49.28
2019-05-17T09:12:06.365Z,48.87
2019-05-17T09:17:30.776Z,49.40
2019-05-17T09:20:02.503Z,50.17
2019-05-17T09:22:39.392Z,49.51
2019-05-17T09:25:17.106Z,47.73
2019-05-17T09:27:45.962Z,47.96
2019-05-17T09:30:25.455Z,48.22
2019-05-17T09:33:00.342Z,48.13
2019-05-17T09:35:30.835Z,48.44
2019-05-17T09:38:09.816Z,47.64
2019-05-17T09:40:40.270Z,48.02
2019-05-17T09:43:11.148Z,47.78
2019-05-17T09:45:50.816Z,47.85
2019-05-17T09:48:39.640Z,46.91
2019-05-17T09:51:10.661Z,47.07
2019-05-17T09:53:41.695Z,47.45
2019-05-17T09:56:25.757Z,48.21
2019-05-17T09:59:05.855Z,47.08
2019-05-17T10:01:39.453Z,47.46
2019-05-17T10:04:16.092Z,45.37
2019-05-17T10:06:56.150Z,45.65
2019-05-17T10:09:27.721Z,46.91
2019-05-17T10:12:00.032Z,46.65
2019-05-17T10:14:31.342Z,47.42
2019-05-17T10:17:02.139Z,46.63
2019-05-17T10:19:36.464Z,45.59
2019-05-17T10:22:10.340Z,45.03
2019-05-17T10:24:42.427Z,44.44
2019-05-17T10:27:14.649Z,45.75
2019-05-17T10:29:45.721Z,43.67
2019-05-17T10:32:16.558Z,45.85
2019-05-17T10:34:49.520Z,45.15
2019-05-17T10:37:20.423Z,45.24
2019-05-17T10:39:51.378Z,43.86
2019-05-17T10:42:22.452Z,44.16
2019-05-17T10:44:54.764Z,43.46
2019-05-17T10:47:25.582Z,45.63
2019-05-17T10:49:56.342Z,43.92
2019-05-17T10:52:29.732Z,44.04
2019-05-17T10:54:59.808Z,43.11
2019-05-17T10:57:31.069Z,44.72
2019-05-17T11:00:01.914Z,45.28
2019-05-17T11:02:32.987Z,45.13
2019-05-17T11:05:04.766Z,44.54
2019-05-17T11:07:35.419Z,43.71
2019-05-17T11:10:11.236Z,45.43
2019-05-17T11:12:40.398Z,44.85
2019-05-17T11:15:12.268Z,44.05
2019-05-17T11:17:43.318Z,43.85
2019-05-17T11:20:14.740Z,41.43
2019-05-17T11:22:45.238Z,42.20
2019-05-17T11:25:16.299Z,42.73
2019-05-17T11:28:18.031Z,42.33
2019-05-17T11:30:59.177Z,42.08
2019-05-17T11:33:31.228Z,44.54
2019-05-17T11:36:02.333Z,43.66
2019-05-17T11:38:33.620Z,41.89
2019-05-17T11:41:21.190Z,40.95
2019-05-17T11:44:05.927Z,41.26
2019-05-17T11:46:36.852Z,40.94
2019-05-17T11:49:07.966Z,40.69
2019-05-17T11:51:39.244Z,41.56
2019-05-17T11:54:16.343Z,40.87
2019-05-17T11:56:47.490Z,42.11
2019-05-17T11:59:19.981Z,42.86
2019-05-17T12:01:56.905Z,42.89
2019-05-17T12:04:30.254Z,41.61
2019-05-17T12:07:00.839Z,41.33
2019-05-17T12:09:37.358Z,42.32
2019-05-17T12:12:03.964Z,41.71
2019-05-17T12:14:34.731Z,42.60
2019-05-17T12:17:05.679Z,42.76
2019-05-17T12:19:37.364Z,42.50
2019-05-17T12:22:08.427Z,42.42
2019-05-17T12:24:39.167Z,42.26
2019-05-17T12:27:10.244Z,41.72
2019-05-17T12:29:41.207Z,42.80
2019-05-17T12:32:16.847Z,43.12
2019-05-17T12:34:44.855Z,43.15
2019-05-17T12:37:15.915Z,43.02
2019-05-17T12:39:46.874Z,43.64
2019-05-17T12:42:17.712Z,43.81
2019-05-17T12:44:48.792Z,42.89
2019-05-17T12:47:19.770Z,42.89
2019-05-17T12:49:50.813Z,42.71
2019-05-17T12:52:21.658Z,42.26
2019-05-17T12:54:59.188Z,41.89
2019-05-17T12:57:29.702Z,41.67
2019-05-17T13:00:00.681Z,42.30
2019-05-17T13:02:31.599Z,43.32
2019-05-17T13:05:02.075Z,42.35
2019-05-17T13:07:32.619Z,42.82
2019-05-17T13:10:05.051Z,41.69
2019-05-17T13:12:35.674Z,41.29
2019-05-17T13:15:07.637Z,41.92
2019-05-17T13:17:38.236Z,42.79
2019-05-17T13:20:09.970Z,42.15
2019-05-17T13:22:40.526Z,41.84
2019-05-17T13:25:12.291Z,41.84
2019-05-17T13:27:42.960Z,42.22
2019-05-17T13:30:14.207Z,42.25
2019-05-17T13:32:45.290Z,42.50
2019-05-17T13:35:17.277Z,42.55
2019-05-17T13:37:47.919Z,42.27
2019-05-17T13:40:18.777Z,41.78
2019-05-17T13:42:49.938Z,42.07
2019-05-17T13:45:21.009Z,42.51
2019-05-17T13:47:51.956Z,41.67
2019-05-17T13:50:23.064Z,41.99
2019-05-17T13:52:54.064Z,42.44
2019-05-17T13:55:25.037Z,42.97
2019-05-17T13:57:55.897Z,43.03
2019-05-17T14:00:26.955Z,42.87
2019-05-17T14:02:57.911Z,43.25
2019-05-17T14:05:28.972Z,41.92
2019-05-17T14:07:59.931Z,41.88
2019-05-17T14:10:32.215Z,42.02
2019-05-17T14:13:03.072Z,42.57
2019-05-17T14:15:34.018Z,43.97
2019-05-17T14:18:04.994Z,43.55
2019-05-17T14:20:36.051Z,42.72
2019-05-17T14:23:06.890Z,42.75
2019-05-17T14:25:38.546Z,42.15
2019-05-17T14:28:11.416Z,41.45
2019-05-17T14:30:42.239Z,42.20
2019-05-17T14:33:13.077Z,43.06
2019-05-17T14:35:44.159Z,42.31
2019-05-17T14:38:15.219Z,41.58
2019-05-17T14:41:05.458Z,41.20
2019-05-17T14:43:19.282Z,40.16
2019-05-17T14:45:50.342Z,41.73
2019-05-17T14:48:21.307Z,41.93
2019-05-17T14:50:52.238Z,41.36
2019-05-17T14:53:23.094Z,41.83
2019-05-17T14:55:53.959Z,41.71
2019-05-17T14:58:24.910Z,40.69
2019-05-17T15:00:55.777Z,40.47
2019-05-17T15:03:26.623Z,41.92
2019-05-17T15:05:57.701Z,43.84
2019-05-17T15:08:28.763Z,45.01
2019-05-17T15:10:59.825Z,44.82
2019-05-17T15:13:30.785Z,45.43
2019-05-17T15:16:01.723Z,45.39
2019-05-17T15:18:32.809Z,46.25
2019-05-17T15:21:03.760Z,46.52
2019-05-17T15:23:34.819Z,45.90
2019-05-17T15:26:05.775Z,43.83
2019-05-17T15:28:36.822Z,42.34
2019-05-17T15:31:07.823Z,42.68
2019-05-17T15:33:38.755Z,42.56
2019-05-17T15:36:09.697Z,43.05
2019-05-17T15:38:40.655Z,42.23
2019-05-17T15:41:11.731Z,42.21
2019-05-17T15:43:42.676Z,42.45
2019-05-17T15:46:13.426Z,43.43
2019-05-17T15:48:44.506Z,43.31
2019-05-17T15:51:15.468Z,43.61
2019-05-17T15:53:46.406Z,44.13
2019-05-17T15:56:17.362Z,44.24
2019-05-17T15:58:48.238Z,43.83
2019-05-17T16:01:19.176Z,44.23
2019-05-17T16:03:50.151Z,44.59
2019-05-17T16:06:21.226Z,45.10
2019-05-17T16:08:52.153Z,45.68
2019-05-17T16:11:23.011Z,46.32
2019-05-17T16:13:54.070Z,46.19
2019-05-17T16:16:24.928Z,46.58
2019-05-17T16:18:56.013Z,47.47
2019-05-17T16:21:26.855Z,48.62
2019-05-17T16:23:57.719Z,48.88
2019-05-17T16:26:28.659Z,49.22
2019-05-17T16:28:59.634Z,50.12
2019-05-17T16:31:30.491Z,49.68
2019-05-17T16:34:01.550Z,49.84
2019-05-17T16:36:32.398Z,49.40
2019-05-17T16:39:08.219Z,50.48
2019-05-17T16:41:37.302Z,50.95
2019-05-17T16:44:08.333Z,51.10
2019-05-17T16:46:39.109Z,50.99
2019-05-17T16:49:10.045Z,51.87
2019-05-17T16:51:40.805Z,51.16
2019-05-17T16:54:11.876Z,50.59
2019-05-17T16:56:42.429Z,50.90
2019-05-17T16:59:13.385Z,51.76
2019-05-17T17:01:44.452Z,52.09
2019-05-17T17:04:15.389Z,52.00
2019-05-17T17:06:46.243Z,52.00
2019-05-17T17:09:17.434Z,52.55
2019-05-17T17:11:47.971Z,52.79
2019-05-17T17:14:18.931Z,52.13
2019-05-17T17:16:49.887Z,53.07
2019-05-17T17:19:20.543Z,52.45
2019-05-17T17:21:51.603Z,52.45
2019-05-17T17:24:22.765Z,53.18
2019-05-17T17:26:53.637Z,53.23
2019-05-17T17:29:24.889Z,53.88
2019-05-17T17:31:55.540Z,54.71
2019-05-17T17:34:26.192Z,54.08
2019-05-17T17:36:57.133Z,54.63
2019-05-17T17:39:28.112Z,54.89
2019-05-17T17:41:58.842Z,54.92
2019-05-17T17:44:29.906Z,54.90
2019-05-17T17:47:00.915Z,54.52
2019-05-17T17:49:32.147Z,54.97
2019-05-17T17:52:02.984Z,54.18
2019-05-17T17:54:34.044Z,54.07
2019-05-17T17:57:05.265Z,53.54
2019-05-17T17:59:36.493Z,54.96
2019-05-17T18:02:07.331Z,54.82
2019-05-17T18:04:38.215Z,54.59
2019-05-17T18:07:09.250Z,55.22
2019-05-17T18:09:40.438Z,55.02
2019-05-17T18:12:11.084Z,54.76
2019-05-17T18:14:42.017Z,54.86
2019-05-17T18:17:12.878Z,55.36
2019-05-17T18:19:43.954Z,55.23
2019-05-17T18:22:15.834Z,54.95
2019-05-17T18:24:46.894Z,56.11
2019-05-17T18:27:17.955Z,55.90
2019-05-17T18:29:48.996Z,56.94
2019-05-17T18:32:19.955Z,56.08
2019-05-17T18:34:51.035Z,56.01
2019-05-17T18:37:24.666Z,56.36
2019-05-17T18:39:55.690Z,56.25
2019-05-17T18:42:26.364Z,57.09
2019-05-17T18:44:57.422Z,56.85
2019-05-17T18:47:28.487Z,57.09
2019-05-17T18:49:59.547Z,57.30
2019-05-17T18:52:30.400Z,57.85
2019-05-17T18:55:01.462Z,57.31
2019-05-17T18:57:32.426Z,57.95
2019-05-17T19:00:03.566Z,57.56
2019-05-17T19:02:34.130Z,57.32
2019-05-17T19:05:07.498Z,57.69
2019-05-17T19:07:38.095Z,57.59
2019-05-17T19:10:09.300Z,58.22
2019-05-17T19:12:39.964Z,57.46
2019-05-17T19:15:11.580Z,57.68
2019-05-17T19:17:42.234Z,57.34
2019-05-17T19:20:14.216Z,58.06
2019-05-17T19:22:45.929Z,58.43
2019-05-17T19:25:17.774Z,58.82
2019-05-17T19:27:48.300Z,58.88
2019-05-17T19:30:19.483Z,58.82
2019-05-17T19:32:50.537Z,59.44
2019-05-17T19:35:21.603Z,59.30
2019-05-17T19:37:54.380Z,59.52
2019-05-17T19:40:25.047Z,59.82
2019-05-17T19:42:56.113Z,59.46
2019-05-17T19:45:27.072Z,60.01
2019-05-17T19:47:57.910Z,59.89
2019-05-17T19:50:28.995Z,59.44
2019-05-17T19:52:59.952Z,60.18
2019-05-17T19:55:33.339Z,59.94
2019-05-17T19:58:07.497Z,60.69
2019-05-17T20:00:38.435Z,60.43
2019-05-17T20:03:09.407Z,60.86
2019-05-17T20:05:40.468Z,60.59
2019-05-17T20:08:11.325Z,60.48
2019-05-17T20:10:42.679Z,59.84
2019-05-17T20:13:13.239Z,60.82
2019-05-17T20:15:44.076Z,61.04
2019-05-17T20:18:15.043Z,60.80
2019-05-17T20:20:45.993Z,61.15
2019-05-17T20:23:17.995Z,61.32
2019-05-17T20:25:49.137Z,60.53
2019-05-17T20:28:20.119Z,61.05
2019-05-17T20:30:51.175Z,61.42
2019-05-17T20:33:22.137Z,61.31
2019-05-17T20:35:52.980Z,61.86
2019-05-17T20:38:24.051Z,61.64
2019-05-17T20:40:54.996Z,62.36
2019-05-17T20:43:26.060Z,62.14
2019-05-17T20:45:57.029Z,62.22
2019-05-17T20:48:27.869Z,62.21
2019-05-17T20:50:58.944Z,62.53
2019-05-17T20:53:29.792Z,62.35
2019-05-17T20:56:00.777Z,62.83
2019-05-17T20:58:31.867Z,62.80
2019-05-17T21:01:02.780Z,62.79
2019-05-17T21:03:33.838Z,62.53
2019-05-17T21:06:05.090Z,62.61
2019-05-17T21:08:45.662Z,62.97
2019-05-17T21:11:08.458Z,62.60
2019-05-17T21:13:39.327Z,63.26
2019-05-17T21:16:10.066Z,62.83
2019-05-17T21:18:41.025Z,63.41
2019-05-17T21:21:11.863Z,64.07
2019-05-17T21:23:43.961Z,63.88
2019-05-17T21:26:15.007Z,63.96
2019-05-17T21:28:47.275Z,63.45
2019-05-17T21:31:18.273Z,64.30
2019-05-17T21:33:49.233Z,63.88
2019-05-17T21:36:20.081Z,63.84
2019-05-17T21:38:51.145Z,63.70
2019-05-17T21:41:22.108Z,63.80
2019-05-17T21:43:53.166Z,64.19
2019-05-17T21:46:24.124Z,63.50
2019-05-17T21:48:54.980Z,64.02
2019-05-17T21:51:26.037Z,63.79
2019-05-17T21:53:57.098Z,64.51
2019-05-17T21:56:28.157Z,64.28
2019-05-17T21:58:58.997Z,64.26
2019-05-17T22:01:32.838Z,63.79
2019-05-17T22:04:03.999Z,64.56
2019-05-17T22:06:34.635Z,65.08
2019-05-17T22:09:07.731Z,64.57
2019-05-17T22:11:40.235Z,65.17
2019-05-17T22:14:11.213Z,65.04
2019-05-17T22:16:42.252Z,65.43
2019-05-17T22:19:13.230Z,65.32
2019-05-17T22:21:44.066Z,65.34
2019-05-17T22:24:16.169Z,65.85
2019-05-17T22:26:47.386Z,65.12
2019-05-17T22:29:18.270Z,65.25
2019-05-17T22:31:49.352Z,65.58
2019-05-17T22:34:20.198Z,65.13
2019-05-17T22:36:51.040Z,65.43
2019-05-17T22:39:22.120Z,65.51
2019-05-17T22:41:53.063Z,65.98
2019-05-17T22:44:23.925Z,65.63
2019-05-17T22:46:55.001Z,65.64
2019-05-17T22:49:25.960Z,65.22
2019-05-17T22:51:56.924Z,65.84
2019-05-17T22:54:27.972Z,65.31
2019-05-17T22:56:58.917Z,65.46
2019-05-17T22:59:29.890Z,66.17
2019-05-17T23:02:00.953Z,65.92
2019-05-17T23:04:31.791Z,66.13
2019-05-17T23:07:02.648Z,65.54
2019-05-17T23:09:33.724Z,65.49
2019-05-17T23:12:04.685Z,66.46
2019-05-17T23:14:35.545Z,66.27
2019-05-17T23:17:06.603Z,66.41
2019-05-17T23:19:37.561Z,66.70
2019-05-17T23:22:08.617Z,66.92
2019-05-17T23:24:40.498Z,67.19
2019-05-17T23:27:11.765Z,67.33
2019-05-17T23:29:42.620Z,66.23
2019-05-17T23:32:13.683Z,67.19
2019-05-17T23:34:44.636Z,67.03
2019-05-17T23:37:15.699Z,67.24
2019-05-17T23:39:46.965Z,66.86
2019-05-17T23:42:18.008Z,66.75
2019-05-17T23:44:49.479Z,67.22
2019-05-17T23:47:20.554Z,67.50
2019-05-17T23:49:51.512Z,67.19
2019-05-17T23:52:22.417Z,67.02
2019-05-17T23:54:53.534Z,67.17
2019-05-17T23:57:24.472Z,67.32
2019-05-17T23:59:55.552Z,67.68
